Terminal Aerodrome Forecast
Issued by NWS Duluth, MN

Home | Current Version | Previous Version | Text Only | Print | Product List | Glossary On
Versions: 1 2 3 4 5 6 7 8 9 10 11 12 13 14 15 16 17 18 19 20 21 22
000
FTUS43 KDLH 210528
TAFINL
TAF
KINL 210528Z 2106/2206 00000KT P6SM SKC
     FM211600 16009G17KT P6SM SCT200
     FM220000 14005KT P6SM BKN100
     FM220300 13005KT P6SM SCT050 BKN100=

USA.gov is the U.S. government's official web portal to all federal, state and local government web resources and services.